Time;durP1;ratioP1;P1;durP2;ratioP2;P2;SDS_P1;SDS_P2;PMS_P1;PMS_P2;Temp;Humidity;BMP_temperature;BMP_pressure;BME280_temperature;BME280_humidity;BME280_pressure;Samples;Min_cycle;Max_cycle;Signal;HPM_P1;HPM_P2
2022/09/24 00:01:20;;;;;;;18.60;15.02;;;;;;;14.48;83.72;101067.41;3613687;39;20082;-65
2022/09/24 00:03:59;;;;;;;19.65;15.88;;;;;;;14.49;83.40;101073.69;3611725;39;20051;-65
2022/09/24 00:06:29;;;;;;;19.92;15.88;;;;;;;14.46;83.71;101072.09;3613362;39;20063;-65
2022/09/24 00:08:56;;;;;;;18.27;15.80;;;;;;;14.46;83.46;101069.38;3610783;39;20063;-65
2022/09/24 00:11:25;;;;;;;19.05;16.48;;;;;;;14.44;83.13;101060.50;3611058;39;20053;-65
2022/09/24 00:13:52;;;;;;;17.92;15.93;;;;;;;13.32;83.39;100873.28;3611130;39;20159;-65
2022/09/24 00:16:21;;;;;;;18.02;15.85;;;;;;;14.43;83.16;101060.59;3611464;39;20056;-66
2022/09/24 00:18:47;;;;;;;17.25;15.27;;;;;;;14.11;83.20;101005.25;3613526;39;20519;-64
2022/09/24 00:21:20;;;;;;;18.73;16.00;;;;;;;14.32;83.51;101039.78;3609620;39;20063;-65
2022/09/24 00:23:53;;;;;;;17.73;15.57;;;;;;;14.40;83.63;101053.59;3610905;39;20794;-65
2022/09/24 00:29:06;;;;;;;18.33;15.85;;;;;;;14.43;83.76;101044.38;3611101;39;20679;-66
2022/09/24 00:31:31;;;;;;;17.45;15.23;;;;;;;14.38;83.54;101033.91;3607557;39;20058;-65
2022/09/24 00:33:58;;;;;;;17.17;15.32;;;;;;;14.43;83.14;101044.38;3614040;39;20143;-64
2022/09/24 00:36:24;;;;;;;16.23;14.38;;;;;;;14.43;83.61;101044.38;3612800;39;20087;-64
2022/09/24 00:38:52;;;;;;;17.55;15.30;;;;;;;14.44;83.84;101038.88;3611174;39;20104;-63
2022/09/24 00:41:22;;;;;;;17.38;15.00;;;;;;;14.46;83.48;101044.16;3609560;39;20057;-64
2022/09/24 00:43:49;;;;;;;19.10;15.30;;;;;;;13.81;83.50;100934.53;3614444;39;20075;-64
2022/09/24 00:46:39;;;;;;;18.48;14.60;;;;;;;14.45;83.33;101035.19;3611597;39;20046;-64
2022/09/24 00:49:14;;;;;;;17.63;14.93;;;;;;;14.45;83.32;101035.19;3608092;39;20098;-65
2022/09/24 00:51:45;;;;;;;16.40;14.13;;;;;;;14.27;83.13;101006.78;3612101;39;20062;-64
2022/09/24 00:54:27;;;;;;;16.35;14.55;;;;;;;14.43;82.81;101028.16;3613998;39;20297;-65
2022/09/24 00:56:57;;;;;;;18.35;14.77;;;;;;;14.40;82.96;101029.25;3611365;39;20071;-63
2022/09/24 00:59:26;;;;;;;16.08;13.77;;;;;;;14.40;83.21;101029.25;3606411;39;20069;-64
2022/09/24 01:01:56;;;;;;;17.73;14.82;;;;;;;14.22;82.89;100984.66;3614415;39;20055;-64
2022/09/24 01:04:25;;;;;;;18.55;15.38;;;;;;;13.86;83.62;100924.22;3612050;39;20047;-65
2022/09/24 01:06:51;;;;;;;18.75;14.13;;;;;;;14.41;83.21;101014.75;3607688;39;20088;-64
2022/09/24 01:09:25;;;;;;;16.92;14.43;;;;;;;14.42;83.55;101010.19;3612562;39;20108;-63
2022/09/24 01:11:53;;;;;;;;;;;;;;;14.37;83.65;101011.41;3612399;39;20116;-65
2022/09/24 01:14:35;;;;;;;17.63;14.18;;;;;;;14.37;82.86;101005.16;3613596;39;20297;-64
2022/09/24 01:17:15;;;;;;;15.75;14.02;;;;;;;14.35;82.77;101007.97;3613073;39;20058;-65
2022/09/24 01:20:13;;;;;;;17.20;13.60;;;;;;;14.33;83.01;101003.63;3613309;39;20051;-64
2022/09/24 01:23:03;;;;;;;16.48;13.20;;;;;;;14.35;83.41;100999.84;3612047;39;20058;-64
2022/09/24 01:26:06;;;;;;;17.38;13.43;;;;;;;14.33;82.68;100988.25;3612394;39;20039;-65
2022/09/24 01:29:23;;;;;;;16.33;13.15;;;;;;;14.33;83.09;100987.41;3613634;39;20047;-63
2022/09/24 01:32:30;;;;;;;14.73;12.93;;;;;;;14.29;82.93;100994.03;3614868;39;20051;-64
2022/09/24 01:35:26;;;;;;;15.15;12.35;;;;;;;13.62;83.40;100868.34;3615942;39;20087;-65
2022/09/24 01:38:03;;;;;;;15.50;13.48;;;;;;;14.29;82.96;100985.91;3611928;39;20433;-63
2022/09/24 01:40:30;;;;;;;16.65;13.60;;;;;;;14.30;82.70;100984.94;3610192;39;20069;-64
2022/09/24 01:43:02;;;;;;;14.23;12.57;;;;;;;14.30;82.85;100977.72;3612207;39;20062;-64
2022/09/24 01:45:31;;;;;;;14.97;12.67;;;;;;;14.31;83.41;100974.03;3615804;39;20055;-64
2022/09/24 01:48:00;;;;;;;16.58;13.10;;;;;;;14.32;83.04;100969.47;3615830;39;20063;-65
2022/09/24 01:50:33;;;;;;;15.57;13.65;;;;;;;14.30;82.85;100976.81;3611441;39;20042;-64
2022/09/24 01:53:20;;;;;;;17.73;14.30;;;;;;;14.28;82.91;100974.25;3617003;39;20143;-64
2022/09/24 01:55:57;;;;;;;16.02;14.23;;;;;;;14.16;83.20;100954.38;3611951;39;20067;-64
2022/09/24 01:58:39;;;;;;;17.75;14.60;;;;;;;14.24;83.51;100967.34;3603357;39;20067;-64
2022/09/24 02:01:16;;;;;;;18.52;14.52;;;;;;;14.21;83.53;100967.59;3615360;39;20086;-65
2022/09/24 02:03:55;;;;;;;16.50;13.73;;;;;;;14.24;84.24;100978.16;3612330;39;20286;-64
2022/09/24 02:06:35;;;;;;;17.17;14.48;;;;;;;14.17;83.25;100961.50;3611807;39;20056;-63
2022/09/24 02:09:01;;;;;;;23.25;14.40;;;;;;;14.27;83.52;100966.22;3614275;39;20062;-64
2022/09/24 02:11:34;;;;;;;17.20;14.50;;;;;;;14.26;83.22;100964.50;3612234;39;20100;-64
2022/09/24 02:14:13;;;;;;;18.55;14.57;;;;;;;14.28;83.24;100958.03;3610194;39;20055;-63
2022/09/24 02:16:47;;;;;;;18.10;15.23;;;;;;;13.63;82.88;100850.28;3607575;39;20305;-64
2022/09/24 02:19:20;;;;;;;;;;;;;;;14.20;83.29;100946.06;3608333;39;20095;-65
2022/09/24 02:21:47;;;;;;;19.08;14.70;;;;;;;14.29;83.45;100958.88;3606354;39;19935;-65
2022/09/24 02:24:31;;;;;;;19.27;15.40;;;;;;;14.31;83.17;100959.63;3607424;39;20058;-64
2022/09/24 02:26:57;;;;;;;;;;;;;;;14.23;83.14;100956.63;3608798;39;20058;-63
2022/09/24 02:29:23;;;;;;;18.67;15.50;;;;;;;14.26;83.74;100962.66;3606590;39;19932;-64
2022/09/24 02:31:56;;;;;;;18.02;15.52;;;;;;;14.25;83.86;100952.00;3607738;39;20051;-64
2022/09/24 02:34:35;;;;;;;17.23;14.95;;;;;;;14.31;83.79;100956.94;3609914;39;20059;-64
2022/09/24 02:37:09;;;;;;;18.15;15.60;;;;;;;14.32;83.36;100950.53;3606456;39;20050;-64
2022/09/24 02:39:35;;;;;;;21.23;16.13;;;;;;;14.34;83.20;100954.00;3607369;39;20051;-65
2022/09/24 02:42:04;;;;;;;19.50;16.52;;;;;;;14.26;83.14;100937.47;3606622;39;21258;-64
2022/09/24 02:44:31;;;;;;;20.05;16.02;;;;;;;13.70;82.72;100846.16;3610924;39;20087;-64
2022/09/24 02:46:58;;;;;;;19.17;16.30;;;;;;;14.31;83.44;100946.13;3607901;39;20047;-64
2022/09/24 02:49:23;;;;;;;21.13;17.38;;;;;;;14.30;83.82;100949.78;3608876;39;20063;-65
2022/09/24 02:51:49;;;;;;;20.50;18.02;;;;;;;13.65;83.33;100840.25;3613215;39;20054;-65
2022/09/24 02:54:15;;;;;;;23.60;18.17;;;;;;;13.63;83.31;100836.78;3607468;39;20059;-65
2022/09/24 02:56:41;;;;;;;20.05;17.88;;;;;;;14.30;83.52;100944.38;3608152;39;20107;-65
2022/09/24 02:59:08;;;;;;;22.23;19.00;;;;;;;14.28;84.05;100938.25;3610707;39;20066;-64
2022/09/24 03:01:34;;;;;;;23.02;19.40;;;;;;;14.28;84.23;100947.22;3609668;39;20059;-64
2022/09/24 03:04:01;;;;;;;25.63;19.88;;;;;;;14.25;84.78;100941.16;3600570;39;20390;-63
2022/09/24 03:06:28;;;;;;;24.83;20.70;;;;;;;14.27;84.04;100939.19;3597381;39;20086;-63
2022/09/24 03:08:54;;;;;;;23.73;20.73;;;;;;;14.29;84.65;100943.50;3597795;39;20087;-62
2022/09/24 03:11:21;;;;;;;25.85;22.48;;;;;;;14.29;84.64;100938.09;3608014;39;20121;-63
2022/09/24 03:13:49;;;;;;;27.25;22.48;;;;;;;13.53;84.79;100814.16;3610619;39;20371;-65
2022/09/24 03:16:16;;;;;;;28.13;23.55;;;;;;;14.27;84.55;100939.19;3607911;39;20099;-63
2022/09/24 03:18:42;;;;;;;28.85;24.55;;;;;;;13.60;84.87;100820.81;3608263;39;20081;-67
2022/09/24 03:21:12;;;;;;;29.80;25.02;;;;;;;14.24;85.10;100929.50;3609656;39;20074;-68
2022/09/24 03:23:38;;;;;;;29.77;25.42;;;;;;;14.25;85.70;100933.06;3613749;39;20053;-65
2022/09/24 03:26:04;;;;;;;31.50;26.23;;;;;;;14.26;84.97;100932.06;3611059;39;20181;-64
2022/09/24 03:28:30;;;;;;;33.47;26.67;;;;;;;14.25;85.43;100924.94;3606188;39;20051;-66
2022/09/24 03:30:59;;;;;;;32.15;26.27;;;;;;;13.73;85.17;100837.81;3605379;39;20043;-65
2022/09/24 03:33:46;;;;;;;31.58;26.30;;;;;;;14.25;85.64;100924.94;3606606;39;20052;-65
2022/09/24 03:36:19;;;;;;;28.95;25.77;;;;;;;13.55;85.84;100810.38;3607407;39;20059;-65
2022/09/24 03:38:47;;;;;;;30.77;26.50;;;;;;;14.26;85.52;100916.69;3610041;39;20400;-65
2022/09/24 03:41:15;;;;;;;32.92;27.08;;;;;;;14.26;85.50;100918.56;3608579;39;20116;-64
2022/09/24 03:43:41;;;;;;;31.58;26.58;;;;;;;14.28;85.24;100919.31;3612061;39;20055;-65
2022/09/24 03:46:12;;;;;;;34.55;27.52;;;;;;;14.26;85.39;100922.13;3610576;39;20474;-65
2022/09/24 03:48:40;;;;;;;32.13;26.75;;;;;;;14.30;85.64;100920.03;3606745;39;20478;-64
2022/09/24 03:51:15;;;;;;;32.28;27.17;;;;;;;14.30;85.99;100912.81;3611803;39;20059;-64
2022/09/24 03:53:41;;;;;;;32.75;25.95;;;;;;;14.31;85.45;100909.13;3606905;39;20386;-65
2022/09/24 03:56:08;;;;;;;30.77;26.40;;;;;;;13.49;85.01;100773.00;3605014;39;20051;-65
2022/09/24 03:58:37;;;;;;;30.10;25.77;;;;;;;14.27;85.57;100901.34;3609404;39;20062;-64
2022/09/24 04:01:09;;;;;;;31.50;26.20;;;;;;;14.25;85.78;100901.47;3609495;39;20380;-64
2022/09/24 04:03:36;;;;;;;29.85;24.90;;;;;;;14.27;86.15;100901.34;3606144;39;20048;-64
2022/09/24 04:06:04;;;;;;;29.27;25.75;;;;;;;14.23;85.46;100899.84;3607826;39;20378;-64
2022/09/24 04:08:30;;;;;;;28.95;24.25;;;;;;;14.25;85.59;100903.31;3608006;39;20048;-64
2022/09/24 04:10:56;;;;;;;29.38;24.80;;;;;;;13.65;86.08;100799.72;3609422;39;20059;-64
2022/09/24 04:13:22;;;;;;;31.42;25.77;;;;;;;14.26;85.51;100900.47;3607921;39;20352;-66
2022/09/24 04:15:49;;;;;;;30.23;25.88;;;;;;;14.26;85.77;100896.91;3609258;39;20303;-64
2022/09/24 04:18:15;;;;;;;30.70;24.60;;;;;;;14.26;85.71;100899.63;3608684;39;20067;-65
2022/09/24 04:20:41;;;;;;;28.35;24.10;;;;;;;14.20;85.67;100883.88;3606912;39;20089;-65
2022/09/24 04:23:07;;;;;;;29.95;24.73;;;;;;;14.24;85.95;100891.66;3607524;39;20081;-65
2022/09/24 04:25:33;;;;;;;28.73;24.45;;;;;;;14.28;85.81;100892.28;3607987;39;20346;-64
2022/09/24 04:28:03;;;;;;;28.35;24.30;;;;;;;14.28;85.51;100886.88;3607015;39;20059;-65
2022/09/24 04:30:32;;;;;;;26.52;23.67;;;;;;;13.70;85.70;100795.72;3607999;39;20063;-65
2022/09/24 04:33:01;;;;;;;31.15;24.77;;;;;;;14.12;85.86;100869.09;3609870;39;20042;-65
2022/09/24 04:35:30;;;;;;;30.23;23.15;;;;;;;14.23;86.03;100886.34;3609214;39;20091;-65
2022/09/24 04:37:58;;;;;;;29.92;23.42;;;;;;;14.19;85.63;100884.84;3607064;39;20055;-65
2022/09/24 04:40:24;;;;;;;30.15;24.08;;;;;;;14.22;86.05;100887.31;3607784;39;20055;-66
2022/09/24 04:42:49;;;;;;;28.77;24.45;;;;;;;14.24;86.08;100890.75;3612862;39;20061;-66
2022/09/24 04:45:18;;;;;;;30.60;23.73;;;;;;;14.26;86.16;100886.97;3608378;39;20051;-65
2022/09/24 04:47:43;;;;;;;29.05;23.38;;;;;;;14.26;85.79;100894.22;3608324;39;20050;-65
2022/09/24 04:50:10;;;;;;;29.58;24.88;;;;;;;13.56;85.95;100773.41;3607925;39;20059;-65
2022/09/24 04:52:38;;;;;;;27.02;23.67;;;;;;;14.22;86.08;100892.72;3609672;39;20333;-66
2022/09/24 04:55:05;;;;;;;28.77;23.92;;;;;;;14.22;86.43;100882.78;3610168;39;20051;-65
2022/09/24 04:57:34;;;;;;;28.20;24.15;;;;;;;14.11;86.39;100875.50;3610246;39;20062;-65
2022/09/24 05:00:07;;;;;;;30.17;23.13;;;;;;;14.16;86.37;100886.81;3611431;39;21339;-64
2022/09/24 05:02:32;;;;;;;30.48;22.88;;;;;;;14.07;86.21;100868.56;3607306;39;20058;-64
2022/09/24 05:04:58;;;;;;;31.75;23.95;;;;;;;14.23;86.40;100894.44;3600262;39;20552;-65
2022/09/24 05:07:24;;;;;;;26.45;22.80;;;;;;;13.61;86.07;100791.00;3610684;39;20051;-65
2022/09/24 05:09:49;;;;;;;28.30;22.13;;;;;;;14.22;85.88;100887.31;3605499;39;20619;-65
2022/09/24 05:12:15;;;;;;;28.02;22.05;;;;;;;14.19;85.85;100887.56;3607604;39;20066;-65
2022/09/24 05:14:41;;;;;;;26.77;21.80;;;;;;;14.14;86.26;100891.47;3606063;39;20136;-63
2022/09/24 05:17:07;;;;;;;24.13;20.33;;;;;;;13.26;86.47;100741.44;3608333;39;20067;-64
2022/09/24 05:19:32;;;;;;;23.80;19.95;;;;;;;14.14;86.26;100894.19;3608154;39;20411;-64
2022/09/24 05:21:58;;;;;;;24.90;19.80;;;;;;;14.15;86.54;100898.59;3609423;39;20066;-64
2022/09/24 05:24:23;;;;;;;26.27;19.00;;;;;;;14.13;86.31;100899.69;3609250;39;20067;-64
2022/09/24 05:29:33;;;;;;;20.17;17.60;;;;;;;13.41;86.15;100778.09;3607880;39;20062;-64
2022/09/24 05:32:04;;;;;;;22.42;18.92;;;;;;;14.06;86.91;100888.47;3609570;39;20059;-64
2022/09/24 05:34:30;;;;;;;23.08;18.58;;;;;;;14.13;86.63;100899.69;3611252;39;20151;-64
2022/09/24 05:36:56;;;;;;;24.27;18.42;;;;;;;14.14;86.86;100905.00;3609193;39;20058;-64
2022/09/24 05:39:21;;;;;;;23.20;18.17;;;;;;;14.13;86.55;100902.41;3602446;39;20053;-65
2022/09/24 05:41:47;;;;;;;24.73;18.42;;;;;;;13.98;86.72;100879.22;3608745;39;20059;-65
2022/09/24 05:44:13;;;;;;;22.17;18.48;;;;;;;14.03;87.18;100891.41;3608994;39;20070;-65
2022/09/24 05:46:38;;;;;;;23.10;19.02;;;;;;;14.08;86.99;100900.06;3608522;39;20047;-65
2022/09/24 05:49:04;;;;;;;21.25;18.27;;;;;;;14.09;86.64;100904.47;3607059;39;20105;-63
2022/09/24 05:51:29;;;;;;;23.92;17.70;;;;;;;14.08;86.80;100907.28;3612394;39;20059;-66
2022/09/24 05:53:55;;;;;;;20.63;17.02;;;;;;;14.04;86.86;100901.25;3611456;39;20047;-64
2022/09/24 05:56:21;;;;;;;21.23;17.77;;;;;;;14.09;87.12;100907.19;3613949;39;20054;-65
2022/09/24 05:58:49;;;;;;;22.40;17.50;;;;;;;14.09;86.91;100909.88;3612760;39;20074;-64
2022/09/24 06:01:15;;;;;;;22.38;17.88;;;;;;;14.06;87.08;100902.00;3607653;39;20135;-64
2022/09/24 06:03:41;;;;;;;22.55;17.75;;;;;;;14.13;87.16;100907.81;3614028;39;20047;-64
2022/09/24 06:06:07;;;;;;;22.10;18.30;;;;;;;13.97;86.57;100899.97;3609885;39;20396;-65
2022/09/24 06:08:33;;;;;;;23.45;18.63;;;;;;;14.00;86.66;100902.47;3610577;39;20047;-65
2022/09/24 06:11:04;;;;;;;22.58;18.30;;;;;;;13.49;87.03;100812.66;3609301;39;20514;-64
2022/09/24 06:13:32;;;;;;;22.25;18.15;;;;;;;14.10;87.22;100911.59;3608818;39;20398;-62
2022/09/24 06:16:08;;;;;;;22.23;17.83;;;;;;;14.01;86.69;100897.91;3610937;39;20066;-62
2022/09/24 06:18:37;;;;;;;22.23;18.42;;;;;;;14.10;87.06;100916.13;3608792;39;21410;-62
2022/09/24 06:21:07;;;;;;;21.90;17.98;;;;;;;14.12;87.04;100919.59;3606818;39;20043;-63
2022/09/24 06:23:34;;;;;;;22.08;18.80;;;;;;;14.09;86.37;100920.69;3607845;39;20128;-62
2022/09/24 06:26:01;;;;;;;22.27;17.65;;;;;;;13.43;87.01;100806.72;3607684;39;20074;-63
2022/09/24 06:28:27;;;;;;;22.05;19.00;;;;;;;14.12;86.86;100916.91;3605647;39;20054;-62
2022/09/24 06:30:53;;;;;;;22.92;19.23;;;;;;;14.13;87.13;100914.06;3614978;39;20065;-63
2022/09/24 06:33:20;;;;;;;22.05;17.70;;;;;;;14.14;86.55;100929.34;3608922;39;20051;-63
2022/09/24 06:35:47;;;;;;;21.23;17.00;;;;;;;14.17;87.24;100928.22;3610426;39;20046;-63
2022/09/24 06:38:18;;;;;;;20.67;16.92;;;;;;;13.92;86.75;100884.13;3609820;39;20132;-62
2022/09/24 06:40:49;;;;;;;23.98;18.25;;;;;;;14.21;86.78;100931.53;3600522;39;20061;-62
2022/09/24 06:43:16;;;;;;;20.00;17.02;;;;;;;14.22;86.70;100933.28;3602587;39;20062;-62
2022/09/24 06:45:43;;;;;;;21.83;17.85;;;;;;;14.22;86.51;100933.28;3609348;39;20051;-63
2022/09/24 06:48:12;;;;;;;22.50;18.50;;;;;;;14.24;86.65;100928.59;3613694;39;20055;-63
2022/09/24 06:50:44;;;;;;;23.13;18.05;;;;;;;14.21;86.44;100932.44;3613055;39;20400;-63
2022/09/24 06:53:11;;;;;;;23.27;19.95;;;;;;;14.21;86.51;100934.25;3609278;39;21463;-62
2022/09/24 06:55:38;;;;;;;22.58;18.35;;;;;;;14.10;86.84;100917.00;3609392;39;20365;-62
2022/09/24 06:58:32;;;;;;;22.45;17.67;;;;;;;14.22;86.99;100936.00;3600675;39;20090;-61
2022/09/24 07:01:01;;;;;;;21.98;17.88;;;;;;;14.19;86.54;100941.63;3605501;39;20042;-63
2022/09/24 07:03:33;;;;;;;24.50;19.27;;;;;;;14.09;86.84;100936.91;3608129;39;20050;-62
2022/09/24 07:06:03;;;;;;;22.83;18.63;;;;;;;14.20;87.22;100937.94;3609396;39;20055;-61
2022/09/24 07:08:30;;;;;;;22.92;19.05;;;;;;;14.23;87.13;100948.53;3608766;39;20051;-62
2022/09/24 07:10:55;;;;;;;24.83;19.90;;;;;;;14.22;87.29;100946.81;3609390;39;20059;-62
2022/09/24 07:13:21;;;;;;;24.77;19.70;;;;;;;14.24;88.26;100943.00;3611524;39;20089;-63
2022/09/24 07:15:51;;;;;;;23.50;19.95;;;;;;;14.26;87.44;100948.28;3606777;39;20337;-62
2022/09/24 07:18:18;;;;;;;23.63;19.00;;;;;;;13.62;86.85;100837.78;3607239;39;20381;-62
2022/09/24 07:20:53;;;;;;;24.10;20.10;;;;;;;13.04;86.58;100740.34;3609197;39;20063;-62
2022/09/24 07:23:20;;;;;;;23.92;19.15;;;;;;;14.23;87.25;100943.97;3613987;39;20047;-62
2022/09/24 07:25:46;;;;;;;23.70;20.40;;;;;;;14.24;87.09;100945.72;3613128;39;20047;-62
2022/09/24 07:28:14;;;;;;;26.23;21.02;;;;;;;14.25;87.38;100952.00;3611502;39;20429;-62
2022/09/24 07:30:41;;;;;;;24.40;20.35;;;;;;;14.26;87.45;100951.00;3614826;39;20058;-62
2022/09/24 07:33:08;;;;;;;26.00;22.88;;;;;;;14.27;87.51;100960.81;3613886;39;20054;-62
2022/09/24 07:35:38;;;;;;;25.35;22.42;;;;;;;14.27;87.42;100947.31;3612799;39;20058;-63
2022/09/24 07:38:10;;;;;;;26.85;21.27;;;;;;;14.27;87.66;100955.41;3610265;39;20050;-62
2022/09/24 07:40:36;;;;;;;26.20;21.75;;;;;;;14.28;87.71;100965.28;3614119;39;20047;-62
2022/09/24 07:43:02;;;;;;;28.25;22.70;;;;;;;14.16;87.88;100938.16;3609511;39;20141;-62
2022/09/24 07:45:30;;;;;;;26.95;21.73;;;;;;;14.30;87.80;100966.91;3609789;39;20075;-63
2022/09/24 07:48:02;;;;;;;27.02;22.90;;;;;;;13.49;87.58;100823.47;3612889;39;20418;-63
2022/09/24 07:50:31;;;;;;;27.00;22.60;;;;;;;14.33;88.02;100968.47;3612263;39;20047;-63
2022/09/24 07:52:57;;;;;;;26.67;22.38;;;;;;;14.29;87.93;100956.19;3615327;39;20088;-63
2022/09/24 07:55:24;;;;;;;26.38;23.38;;;;;;;14.34;86.95;100965.69;3605825;39;20059;-62
2022/09/24 07:57:53;;;;;;;27.50;22.45;;;;;;;13.66;87.52;100856.31;3615965;39;20073;-63
2022/09/24 08:00:22;;;;;;;28.55;23.15;;;;;;;14.26;87.20;100951.84;3604952;39;20062;-63
2022/09/24 08:02:48;;;;;;;27.00;22.85;;;;;;;14.34;87.72;100965.69;3611162;39;20112;-62
2022/09/24 08:05:15;;;;;;;29.95;23.77;;;;;;;14.35;87.67;100966.53;3609993;39;20063;-63
2022/09/24 08:07:41;;;;;;;27.25;22.90;;;;;;;14.34;87.10;100972.94;3602771;39;20043;-62
2022/09/24 08:10:08;;;;;;;26.60;22.40;;;;;;;14.28;87.41;100973.38;3599435;39;20059;-64
2022/09/24 08:12:34;;;;;;;26.13;21.65;;;;;;;14.37;87.55;100967.28;3609213;39;20058;-63
2022/09/24 08:15:00;;;;;;;28.30;23.27;;;;;;;14.39;87.44;100977.00;3611497;39;20051;-62
2022/09/24 08:17:26;;;;;;;26.17;22.70;;;;;;;14.44;88.01;100982.06;3613304;39;20417;-63
2022/09/24 08:19:55;;;;;;;26.27;22.20;;;;;;;14.47;87.21;100983.69;3599873;39;20059;-64
2022/09/24 08:22:23;;;;;;;26.20;22.30;;;;;;;14.46;87.04;100982.81;3610276;39;20055;-64
2022/09/24 08:24:49;;;;;;;30.15;23.83;;;;;;;14.49;88.05;100985.25;3610171;39;20578;-64
2022/09/24 08:27:16;;;;;;;27.35;21.88;;;;;;;13.78;86.86;100867.22;3611064;39;20423;-63
2022/09/24 08:29:42;;;;;;;28.20;22.92;;;;;;;14.53;86.86;100984.13;3601190;39;20050;-62
2022/09/24 08:32:08;;;;;;;25.13;22.00;;;;;;;14.52;86.67;100985.06;3608555;39;20948;-64
2022/09/24 08:34:37;;;;;;;26.33;22.38;;;;;;;14.52;86.95;100986.91;3608859;39;20059;-63
2022/09/24 08:37:04;;;;;;;30.30;22.73;;;;;;;14.56;85.87;100992.00;3610230;39;20054;-64
2022/09/24 08:39:32;;;;;;;27.20;22.83;;;;;;;13.97;86.87;100883.78;3611823;39;20083;-63
2022/09/24 08:42:48;;;;;;;24.55;20.85;;;;;;;14.59;86.68;100999.88;3612825;39;20042;-64
2022/09/24 08:48:21;;;;;;;28.38;22.98;;;;;;;14.57;86.25;100985.59;3608831;39;20058;-64
2022/09/24 08:51:04;;;;;;;26.05;22.92;;;;;;;14.66;86.51;100996.72;3607406;39;20055;-63
2022/09/24 08:53:57;;;;;;;;;;;;;;;14.66;86.50;101002.13;3610182;39;20055;-64
2022/09/24 08:56:38;;;;;;;25.10;21.50;;;;;;;14.69;86.40;101013.56;3609378;39;19979;-65
2022/09/24 08:59:18;;;;;;;27.13;22.20;;;;;;;14.70;85.97;101011.72;3601983;39;20110;-63
2022/09/24 09:02:34;;;;;;;27.75;23.08;;;;;;;14.74;86.56;101021.31;3612112;39;20274;-63
2022/09/24 09:05:38;;;;;;;27.20;22.40;;;;;;;14.75;85.73;101012.25;3609478;39;20107;-63
2022/09/24 09:08:40;;;;;;;;;;;;;;;14.74;85.89;101010.50;3610462;39;20054;-64
2022/09/24 09:11:15;;;;;;;27.25;22.45;;;;;;;14.78;86.39;101020.09;3603679;39;19999;-63
2022/09/24 09:14:45;;;;;;;26.17;23.25;;;;;;;13.79;86.26;100841.91;3609565;39;20059;-62
2022/09/24 09:17:19;;;;;;;27.15;22.30;;;;;;;14.84;86.31;101016.94;3578878;40;20430;-62
2022/09/24 09:19:55;;;;;;;31.20;23.20;;;;;;;14.82;86.02;101008.94;3607038;39;20089;-62
2022/09/24 09:22:29;;;;;;;27.35;24.02;;;;;;;14.87;86.60;101019.41;3612737;39;20096;-62
2022/09/24 09:25:11;;;;;;;26.73;23.52;;;;;;;14.91;85.97;101023.63;3610616;39;20072;-62
2022/09/24 09:27:37;;;;;;;25.40;22.38;;;;;;;14.91;86.90;101020.06;3608936;39;20093;-63
2022/09/24 09:30:06;;;;;;;28.15;23.38;;;;;;;14.92;86.20;101022.63;3610192;39;20430;-61
2022/09/24 09:32:55;;;;;;;26.35;22.48;;;;;;;14.91;86.01;101020.91;3607899;39;20082;-64
2022/09/24 09:35:59;;;;;;;28.17;22.15;;;;;;;14.93;86.30;101024.34;3609510;39;20397;-62
2022/09/24 09:38:46;;;;;;;26.95;23.30;;;;;;;14.92;85.46;101019.91;3610189;39;20455;-62
2022/09/24 09:41:48;;;;;;;27.80;22.92;;;;;;;14.93;85.94;101020.78;3610562;39;20070;-63
2022/09/24 09:44:26;;;;;;;24.63;20.85;;;;;;;14.93;85.58;101008.09;3610642;39;20401;-63
2022/09/24 09:47:07;;;;;;;26.20;21.10;;;;;;;15.04;85.94;101016.28;3610253;39;20423;-62
2022/09/24 09:49:37;;;;;;;25.98;21.83;;;;;;;15.04;85.24;101024.38;3613754;39;20063;-63
2022/09/24 09:52:17;;;;;;;26.73;22.73;;;;;;;15.06;85.51;101019.72;3614447;39;20087;-63
2022/09/24 09:54:43;;;;;;;26.92;20.90;;;;;;;15.08;85.49;101017.75;3610324;39;20063;-63
2022/09/24 09:57:17;;;;;;;26.35;21.73;;;;;;;15.15;85.77;101017.28;3611158;39;20124;-63
2022/09/24 09:59:52;;;;;;;24.15;20.73;;;;;;;15.14;85.47;101015.56;3607149;39;20327;-63
2022/09/24 10:02:30;;;;;;;24.67;21.00;;;;;;;15.18;86.03;101022.44;3614180;39;20047;-63
2022/09/24 10:05:03;;;;;;;26.15;21.70;;;;;;;15.25;85.98;101018.28;3612165;39;20047;-63
2022/09/24 10:07:30;;;;;;;24.92;20.23;;;;;;;15.29;85.38;101020.63;3613214;39;20046;-64
2022/09/24 10:10:25;;;;;;;24.80;21.05;;;;;;;15.30;84.69;101024.19;3611881;39;20079;-64
2022/09/24 10:13:11;;;;;;;23.38;18.83;;;;;;;15.32;84.20;101022.25;3611445;39;20074;-64
2022/09/24 10:15:57;;;;;;;21.90;18.45;;;;;;;14.62;84.03;100909.50;3610171;39;20134;-64
2022/09/24 10:18:41;;;;;;;22.80;19.77;;;;;;;15.29;83.81;101022.47;3612862;39;20103;-64
2022/09/24 10:21:23;;;;;;;;;;;;;;;15.29;84.18;101019.78;3610574;39;20047;-63
2022/09/24 10:23:50;;;;;;;24.00;19.75;;;;;;;15.32;84.30;101019.53;3610205;39;19931;-64
2022/09/24 10:26:16;;;;;;;26.15;20.02;;;;;;;15.35;84.52;101011.16;3612365;39;20177;-63
2022/09/24 10:31:40;;;;;;;26.10;19.13;;;;;;;15.35;84.43;101002.16;3609659;39;20057;-64
2022/09/24 10:34:25;;;;;;;21.92;19.58;;;;;;;15.40;84.91;101010.78;3599434;39;20310;-63
2022/09/24 10:37:00;;;;;;;23.10;20.48;;;;;;;15.47;84.19;101012.03;3610030;39;20051;-63
2022/09/24 10:39:26;;;;;;;22.27;19.77;;;;;;;15.53;83.82;101012.38;3613285;39;20066;-63
2022/09/24 10:41:55;;;;;;;23.73;19.45;;;;;;;15.62;83.71;101008.09;3610024;39;20051;-64
2022/09/24 10:44:27;;;;;;;24.63;19.83;;;;;;;15.23;83.53;100939.00;3612714;39;20585;-64
2022/09/24 10:47:31;;;;;;;21.08;18.17;;;;;;;15.69;82.96;101006.63;3600543;39;20110;-63
2022/09/24 10:50:42;;;;;;;21.48;18.08;;;;;;;15.74;82.13;101020.69;3588215;39;20386;-63
2022/09/24 10:53:55;;;;;;;20.63;17.90;;;;;;;15.77;82.25;101025.88;3608985;39;20059;-62
2022/09/24 10:56:42;;;;;;;19.67;17.35;;;;;;;15.80;81.88;101013.94;3599804;39;20061;-63
2022/09/24 10:59:34;;;;;;;23.10;17.85;;;;;;;15.87;82.04;101031.41;3609637;39;20354;-63
2022/09/24 11:02:12;;;;;;;20.98;18.30;;;;;;;15.89;82.40;101024.03;3609699;39;20047;-64
2022/09/24 11:05:23;;;;;;;22.40;18.98;;;;;;;15.41;82.76;100937.50;3614279;39;20062;-64
2022/09/24 11:08:03;;;;;;;21.65;18.25;;;;;;;16.02;81.71;101035.59;3589405;39;20122;-64
2022/09/24 11:10:58;;;;;;;20.33;17.38;;;;;;;16.06;81.15;101029.91;3602065;39;20128;-64
2022/09/24 11:14:06;;;;;;;21.23;17.40;;;;;;;16.11;80.49;101028.56;3613880;39;20047;-65
2022/09/24 11:17:18;;;;;;;19.98;16.63;;;;;;;16.12;79.84;101032.13;3611484;39;20593;-64
2022/09/24 11:20:32;;;;;;;20.75;15.20;;;;;;;16.21;79.79;101029.53;3610920;39;20669;-64
2022/09/24 11:23:55;;;;;;;20.30;16.45;;;;;;;16.29;80.36;101031.59;3611991;39;20118;-64
2022/09/24 11:26:46;;;;;;;21.33;16.15;;;;;;;16.41;79.33;101036.00;3611360;39;20074;-65
2022/09/24 11:29:45;;;;;;;18.20;14.55;;;;;;;16.38;76.57;101030.84;3608235;39;20728;-64
2022/09/24 11:32:28;;;;;;;17.98;15.13;;;;;;;16.42;77.46;101031.44;3611514;39;20067;-65
2022/09/24 11:35:21;;;;;;;33.17;15.70;;;;;;;16.48;78.46;101031.78;3611390;39;20051;-64
2022/09/24 11:38:02;;;;;;;17.05;14.95;;;;;;;16.54;77.89;101029.56;3610866;39;20055;-65
2022/09/24 11:41:03;;;;;;;19.20;13.05;;;;;;;16.58;77.19;101033.72;3610863;39;20047;-64
2022/09/24 11:43:59;;;;;;;16.23;13.23;;;;;;;16.58;76.06;101029.16;3610500;39;20049;-64
2022/09/24 11:46:37;;;;;;;17.55;12.43;;;;;;;16.57;74.24;101029.31;3608319;39;20050;-64
2022/09/24 11:49:28;;;;;;;15.35;12.10;;;;;;;16.58;74.84;101031.88;3597756;39;20371;-65
2022/09/24 11:52:11;;;;;;;15.30;11.57;;;;;;;16.56;74.88;101038.44;3612086;39;20050;-64
2022/09/24 11:55:03;;;;;;;13.27;10.73;;;;;;;16.51;73.72;101036.09;3609705;39;20059;-64